createdAt,value
2019-05-29T00:00:10.068Z,11.90
2019-05-29T00:02:38.968Z,11.90
2019-05-29T00:05:08.022Z,11.80
2019-05-29T00:07:36.799Z,11.80
2019-05-29T00:10:08.806Z,11.80
2019-05-29T00:12:37.326Z,11.90
2019-05-29T00:15:06.276Z,11.80
2019-05-29T00:17:34.961Z,11.70
2019-05-29T00:20:04.180Z,11.70
2019-05-29T00:22:32.903Z,11.70
2019-05-29T00:25:01.637Z,11.70
2019-05-29T00:27:30.358Z,11.70
2019-05-29T00:29:59.117Z,11.60
2019-05-29T00:32:27.876Z,11.60
2019-05-29T00:34:56.608Z,11.60
2019-05-29T00:37:25.320Z,11.50
2019-05-29T00:39:54.075Z,11.50
2019-05-29T00:42:22.802Z,11.50
2019-05-29T00:44:51.522Z,11.50
2019-05-29T00:47:20.259Z,11.50
2019-05-29T00:49:48.998Z,11.50
2019-05-29T00:52:18.367Z,11.40
2019-05-29T00:54:47.180Z,11.40
2019-05-29T00:57:16.960Z,11.40
2019-05-29T00:59:45.730Z,11.50
2019-05-29T01:02:15.729Z,11.50
2019-05-29T01:04:44.639Z,11.50
2019-05-29T01:07:14.167Z,11.50
2019-05-29T01:09:42.974Z,11.40
2019-05-29T01:12:12.763Z,11.50
2019-05-29T01:14:50.276Z,11.50
2019-05-29T01:17:12.231Z,11.40
2019-05-29T01:19:41.489Z,11.50
2019-05-29T01:22:10.201Z,11.40
2019-05-29T01:24:38.948Z,11.40
2019-05-29T01:27:07.677Z,11.40
2019-05-29T01:29:36.395Z,11.40
2019-05-29T01:32:05.145Z,11.40
2019-05-29T01:34:33.854Z,11.30
2019-05-29T01:37:02.594Z,11.40
2019-05-29T01:39:31.330Z,11.30
2019-05-29T01:42:00.048Z,11.30
2019-05-29T01:44:28.849Z,11.30
2019-05-29T01:46:57.572Z,11.30
2019-05-29T01:49:26.387Z,11.20
2019-05-29T01:51:55.138Z,11.20
2019-05-29T01:54:23.906Z,11.20
2019-05-29T01:56:52.583Z,11.10
2019-05-29T01:59:21.898Z,11.10
2019-05-29T02:01:50.735Z,11.10
2019-05-29T02:04:19.852Z,11.10
2019-05-29T02:06:48.575Z,11.10
2019-05-29T02:09:18.014Z,11.10
2019-05-29T02:11:46.740Z,11.10
2019-05-29T02:14:16.358Z,11.10
2019-05-29T02:16:45.208Z,11.10
2019-05-29T02:19:13.919Z,11.10
2019-05-29T02:21:42.667Z,11.10
2019-05-29T02:24:11.383Z,11.10
2019-05-29T02:26:40.106Z,11.10
2019-05-29T02:29:08.822Z,11.10
2019-05-29T02:31:37.566Z,11.00
2019-05-29T02:34:07.507Z,11.00
2019-05-29T02:36:36.462Z,11.00
2019-05-29T02:39:07.207Z,11.10
2019-05-29T02:41:35.943Z,11.00
2019-05-29T02:44:04.864Z,11.00
2019-05-29T02:46:33.589Z,11.00
2019-05-29T02:49:02.320Z,11.00
2019-05-29T02:51:31.066Z,11.00
2019-05-29T02:53:59.808Z,11.00
2019-05-29T02:56:29.041Z,11.00
2019-05-29T02:58:57.867Z,11.00
2019-05-29T03:01:27.762Z,11.10
2019-05-29T03:03:57.043Z,11.00
2019-05-29T03:06:26.348Z,11.00
2019-05-29T03:08:55.489Z,11.10
2019-05-29T03:11:25.180Z,11.10
2019-05-29T03:13:54.939Z,11.10
2019-05-29T03:16:24.406Z,11.10
2019-05-29T03:18:54.052Z,11.10
2019-05-29T03:21:24.071Z,11.10
2019-05-29T03:23:53.095Z,11.10
2019-05-29T03:26:24.723Z,11.10
2019-05-29T03:28:52.206Z,11.10
2019-05-29T03:31:20.926Z,11.10
2019-05-29T03:33:51.073Z,11.10
2019-05-29T03:36:20.110Z,11.10
2019-05-29T03:38:48.809Z,11.20
2019-05-29T03:41:17.533Z,11.20
2019-05-29T03:43:46.256Z,11.20
2019-05-29T03:46:30.367Z,11.20
2019-05-29T03:48:45.414Z,11.30
2019-05-29T03:51:14.164Z,11.30
2019-05-29T03:53:43.180Z,11.30
2019-05-29T03:56:11.908Z,11.30
2019-05-29T03:58:40.641Z,11.40
2019-05-29T04:01:09.349Z,11.30
2019-05-29T04:03:38.482Z,11.30
2019-05-29T04:06:07.307Z,11.30
2019-05-29T04:08:38.210Z,11.30
2019-05-29T04:11:07.021Z,11.30
2019-05-29T04:13:36.269Z,11.30
2019-05-29T04:16:06.119Z,11.30
2019-05-29T04:18:35.926Z,11.20
2019-05-29T04:21:04.870Z,11.30
2019-05-29T04:23:38.283Z,11.30
2019-05-29T04:26:08.746Z,11.40
2019-05-29T04:28:38.990Z,11.50
2019-05-29T04:31:08.021Z,11.60
2019-05-29T04:33:38.489Z,11.80
2019-05-29T04:36:07.206Z,11.70
2019-05-29T04:38:37.835Z,11.90
2019-05-29T04:41:06.396Z,12.00
2019-05-29T04:43:36.087Z,12.00
2019-05-29T04:46:05.479Z,12.00
2019-05-29T04:48:36.135Z,12.00
2019-05-29T04:51:04.728Z,12.00
2019-05-29T04:53:33.832Z,12.00
2019-05-29T04:56:05.367Z,12.10
2019-05-29T04:58:34.826Z,12.10
2019-05-29T05:01:03.624Z,12.20
2019-05-29T05:03:33.219Z,12.40
2019-05-29T05:06:02.041Z,12.50
2019-05-29T05:11:56.202Z,12.50
2019-05-29T05:14:25.052Z,12.30
2019-05-29T05:16:54.568Z,12.30
2019-05-29T05:19:23.311Z,12.30
2019-05-29T05:21:52.036Z,12.30
2019-05-29T05:24:20.818Z,12.40
2019-05-29T05:26:49.535Z,12.40
2019-05-29T05:29:18.310Z,12.40
2019-05-29T05:31:47.099Z,12.40
2019-05-29T05:34:15.850Z,12.50
2019-05-29T05:36:44.624Z,12.40
2019-05-29T05:39:13.360Z,12.50
2019-05-29T05:41:42.104Z,12.50
2019-05-29T05:44:10.821Z,12.50
2019-05-29T05:46:39.583Z,12.60
2019-05-29T05:49:08.325Z,12.60
2019-05-29T05:51:39.927Z,12.70
2019-05-29T05:54:07.495Z,12.80
2019-05-29T05:56:36.281Z,13.00
2019-05-29T05:59:06.103Z,13.30
2019-05-29T06:01:35.900Z,13.50
2019-05-29T06:04:04.665Z,13.50
2019-05-29T06:06:33.924Z,13.50
2019-05-29T06:09:03.255Z,13.50
2019-05-29T06:11:32.253Z,13.50
2019-05-29T06:14:01.075Z,13.50
2019-05-29T06:16:29.823Z,13.40
2019-05-29T06:18:58.577Z,13.50
2019-05-29T06:21:27.310Z,13.60
2019-05-29T06:23:56.107Z,13.70
2019-05-29T06:26:24.869Z,13.60
2019-05-29T06:28:53.619Z,13.60
2019-05-29T06:31:22.360Z,13.70
2019-05-29T06:33:51.068Z,13.60
2019-05-29T06:36:19.788Z,13.50
2019-05-29T06:38:48.527Z,13.60
2019-05-29T06:41:17.247Z,13.60
2019-05-29T06:43:45.999Z,13.60
2019-05-29T06:46:14.787Z,13.60
2019-05-29T06:48:57.600Z,13.90
2019-05-29T06:51:13.900Z,13.90
2019-05-29T06:53:43.940Z,14.20
2019-05-29T06:56:12.953Z,14.70
2019-05-29T06:58:42.274Z,14.90
2019-05-29T07:01:11.040Z,15.40
2019-05-29T07:03:39.805Z,15.80
2019-05-29T07:06:08.560Z,16.10
2019-05-29T07:08:40.997Z,16.50
2019-05-29T07:11:07.752Z,16.80
2019-05-29T07:13:38.402Z,17.00
2019-05-29T07:16:06.854Z,16.90
2019-05-29T07:18:36.578Z,16.90
2019-05-29T07:21:05.352Z,16.70
2019-05-29T07:23:34.071Z,16.90
2019-05-29T07:26:02.821Z,16.90
2019-05-29T07:28:31.547Z,16.60
2019-05-29T07:31:03.539Z,16.60
2019-05-29T07:33:31.080Z,16.50
2019-05-29T07:35:59.809Z,16.40
2019-05-29T07:38:28.672Z,16.50
2019-05-29T07:40:57.336Z,16.60
2019-05-29T07:43:26.116Z,16.50
2019-05-29T07:45:54.828Z,16.10
2019-05-29T07:48:23.711Z,16.10
2019-05-29T07:51:06.306Z,16.20
2019-05-29T07:53:22.867Z,16.60
2019-05-29T07:55:51.727Z,16.60
2019-05-29T07:58:20.444Z,16.70
2019-05-29T08:01:09.958Z,16.90
2019-05-29T08:03:19.616Z,17.00
2019-05-29T08:05:51.494Z,17.00
2019-05-29T08:08:18.778Z,17.20
2019-05-29T08:10:47.681Z,16.90
2019-05-29T08:13:16.469Z,16.70
2019-05-29T08:15:58.482Z,16.90
2019-05-29T08:18:15.522Z,17.20
2019-05-29T08:20:44.253Z,17.20
2019-05-29T08:23:13.076Z,17.50
2019-05-29T08:25:41.899Z,17.10
2019-05-29T08:28:10.623Z,17.00
2019-05-29T08:30:41.208Z,17.30
2019-05-29T08:33:10.376Z,17.50
2019-05-29T08:35:39.176Z,17.70
2019-05-29T08:38:07.904Z,17.70
2019-05-29T08:40:39.601Z,18.10
2019-05-29T08:43:08.340Z,18.10
2019-05-29T08:45:37.281Z,18.10
2019-05-29T08:48:06.003Z,17.60
2019-05-29T08:50:34.791Z,18.00
2019-05-29T08:53:03.590Z,18.00
2019-05-29T08:55:32.441Z,18.00
2019-05-29T08:58:01.245Z,18.10
2019-05-29T09:00:30.007Z,18.30
2019-05-29T09:02:58.756Z,18.50
2019-05-29T09:05:27.556Z,18.60
2019-05-29T09:07:56.327Z,18.70
2019-05-29T09:10:25.068Z,18.70
2019-05-29T09:13:03.674Z,18.60
2019-05-29T09:15:24.466Z,18.30
2019-05-29T09:17:53.273Z,17.90
2019-05-29T09:20:43.220Z,17.80
2019-05-29T09:22:52.596Z,18.10
2019-05-29T09:25:21.335Z,18.30
2019-05-29T09:27:50.058Z,18.70
2019-05-29T09:30:20.056Z,19.00
2019-05-29T09:32:52.217Z,19.20
2019-05-29T09:35:20.184Z,19.60
2019-05-29T09:37:49.737Z,19.80
2019-05-29T09:40:20.834Z,19.80
2019-05-29T09:42:49.893Z,19.80
2019-05-29T09:45:19.533Z,19.80
2019-05-29T09:47:48.471Z,19.90
2019-05-29T09:50:21.030Z,20.20
2019-05-29T09:52:48.815Z,20.40
2019-05-29T09:55:17.772Z,20.80
2019-05-29T09:57:46.492Z,21.00
2019-05-29T10:00:15.446Z,21.10
2019-05-29T10:02:47.445Z,21.20
2019-05-29T10:05:16.285Z,21.20
2019-05-29T10:07:45.014Z,21.50
2019-05-29T10:10:14.835Z,21.50
2019-05-29T10:12:43.619Z,21.90
2019-05-29T10:15:14.291Z,22.00
2019-05-29T10:17:43.119Z,21.60
2019-05-29T10:20:13.172Z,22.00
2019-05-29T10:22:42.008Z,22.50
2019-05-29T10:25:10.959Z,22.90
2019-05-29T10:27:39.690Z,23.10
2019-05-29T10:30:09.692Z,23.10
2019-05-29T10:32:38.432Z,22.40
2019-05-29T10:35:08.171Z,22.50
2019-05-29T10:37:36.907Z,22.30
2019-05-29T10:40:07.525Z,22.50
2019-05-29T10:42:36.273Z,22.90
2019-05-29T10:45:07.171Z,23.50
2019-05-29T10:47:35.928Z,23.90
2019-05-29T10:50:06.816Z,23.80
2019-05-29T10:52:35.548Z,22.20
2019-05-29T10:55:05.873Z,21.80
2019-05-29T10:57:34.579Z,21.20
2019-05-29T11:00:04.931Z,20.40
2019-05-29T11:02:33.667Z,20.50
2019-05-29T11:05:02.424Z,21.50
2019-05-29T11:07:31.217Z,22.20
2019-05-29T11:10:00.002Z,22.50
2019-05-29T11:12:29.224Z,22.50
2019-05-29T11:14:58.040Z,22.40
2019-05-29T11:17:26.801Z,22.80
2019-05-29T11:19:55.696Z,22.90
2019-05-29T11:22:26.569Z,23.30
2019-05-29T11:24:56.459Z,23.50
2019-05-29T11:27:26.261Z,23.60
2019-05-29T11:29:55.236Z,23.10
2019-05-29T11:32:24.407Z,23.40
2019-05-29T11:34:53.886Z,22.80
2019-05-29T11:37:23.028Z,22.60
2019-05-29T11:39:52.561Z,22.70
2019-05-29T11:42:27.176Z,22.70
2019-05-29T11:44:53.307Z,23.40
2019-05-29T11:47:22.271Z,23.60
2019-05-29T11:49:51.107Z,23.90
2019-05-29T11:52:24.750Z,23.90
2019-05-29T11:54:53.579Z,23.60
2019-05-29T11:57:20.672Z,23.40
2019-05-29T11:59:49.407Z,22.70
2019-05-29T12:02:18.126Z,21.80
2019-05-29T12:04:46.871Z,21.30
2019-05-29T12:07:15.579Z,21.00
2019-05-29T12:09:44.320Z,21.30
2019-05-29T12:12:13.121Z,21.40
2019-05-29T12:14:59.061Z,21.50
2019-05-29T12:17:12.237Z,21.30
2019-05-29T12:19:40.980Z,21.60
2019-05-29T12:22:09.697Z,21.20
2019-05-29T12:24:38.503Z,21.00
2019-05-29T12:27:07.373Z,20.50
2019-05-29T12:29:36.245Z,20.20
2019-05-29T12:32:09.465Z,20.00
2019-05-29T12:34:35.395Z,19.90
2019-05-29T12:37:04.080Z,19.20
2019-05-29T12:39:32.840Z,19.20
2019-05-29T12:42:01.833Z,19.00
2019-05-29T12:44:30.621Z,18.30
2019-05-29T12:46:59.839Z,18.20
2019-05-29T12:49:28.683Z,18.00
2019-05-29T12:51:57.728Z,18.00
2019-05-29T12:54:26.538Z,17.50
2019-05-29T12:56:55.769Z,17.50
2019-05-29T12:59:24.602Z,17.60
2019-05-29T13:01:54.413Z,17.50
2019-05-29T13:04:23.214Z,17.10
2019-05-29T13:06:51.939Z,17.10
2019-05-29T13:09:20.675Z,17.00
2019-05-29T13:11:49.384Z,17.00
2019-05-29T13:14:18.152Z,16.80
2019-05-29T13:16:46.908Z,16.40
2019-05-29T13:19:15.636Z,16.30
2019-05-29T13:21:44.453Z,16.50
2019-05-29T13:24:13.176Z,16.30
2019-05-29T13:26:41.917Z,16.30
2019-05-29T13:29:10.655Z,16.30
2019-05-29T13:31:39.585Z,16.20
2019-05-29T13:34:08.369Z,16.00
2019-05-29T13:36:37.088Z,15.80
2019-05-29T13:39:08.512Z,15.80
2019-05-29T13:41:37.309Z,15.40
2019-05-29T13:46:35.897Z,15.60
2019-05-29T13:49:05.011Z,15.80
2019-05-29T13:51:33.956Z,15.80
2019-05-29T13:54:11.145Z,15.50
2019-05-29T13:56:33.136Z,15.00
2019-05-29T13:59:02.112Z,14.90
2019-05-29T14:01:30.975Z,15.10
2019-05-29T14:04:00.119Z,15.00
2019-05-29T14:06:29.038Z,14.90
2019-05-29T14:08:58.944Z,14.80
2019-05-29T14:11:27.822Z,15.00
2019-05-29T14:13:56.545Z,15.00
2019-05-29T14:16:25.346Z,14.90
2019-05-29T14:18:54.121Z,14.70
2019-05-29T14:21:22.846Z,14.50
2019-05-29T14:23:51.637Z,14.50
2019-05-29T14:26:20.418Z,14.40
2019-05-29T14:28:49.233Z,14.40
2019-05-29T14:31:18.115Z,14.40
2019-05-29T14:33:46.900Z,14.60
2019-05-29T14:36:15.696Z,14.70
2019-05-29T14:38:44.453Z,14.50
2019-05-29T14:41:22.125Z,14.50
2019-05-29T14:43:50.915Z,14.60
2019-05-29T14:46:19.687Z,14.80
2019-05-29T14:48:48.411Z,14.80
2019-05-29T14:51:17.147Z,14.80
2019-05-29T14:53:45.883Z,14.90
2019-05-29T14:56:14.816Z,14.90
2019-05-29T14:58:43.559Z,15.00
2019-05-29T15:01:13.305Z,14.80
2019-05-29T15:03:42.194Z,14.80
2019-05-29T15:06:11.738Z,14.50
2019-05-29T15:08:40.803Z,14.60
2019-05-29T15:11:10.049Z,14.60
2019-05-29T15:13:39.021Z,14.70
2019-05-29T15:16:09.150Z,14.60
2019-05-29T15:18:37.867Z,14.60
2019-05-29T15:21:09.091Z,14.60
2019-05-29T15:23:37.905Z,14.60
2019-05-29T15:26:07.489Z,14.90
2019-05-29T15:28:36.388Z,15.00
2019-05-29T15:31:06.212Z,15.10
2019-05-29T15:33:35.132Z,15.00
2019-05-29T15:36:03.890Z,14.80
2019-05-29T15:38:32.635Z,14.70
2019-05-29T15:41:01.383Z,14.60
2019-05-29T15:43:30.135Z,14.60
2019-05-29T15:45:58.877Z,14.50
2019-05-29T15:48:27.600Z,14.30
2019-05-29T15:50:56.326Z,14.10
2019-05-29T15:53:25.124Z,14.00
2019-05-29T15:55:53.842Z,14.00
2019-05-29T15:58:22.984Z,13.90
2019-05-29T16:00:51.717Z,13.70
2019-05-29T16:03:20.558Z,13.70
2019-05-29T16:05:49.296Z,13.70
2019-05-29T16:08:18.367Z,13.60
2019-05-29T16:10:47.228Z,13.70
2019-05-29T16:13:17.259Z,13.50
2019-05-29T16:15:46.227Z,13.40
2019-05-29T16:18:22.782Z,13.50
2019-05-29T16:20:45.334Z,13.40
2019-05-29T16:23:31.168Z,13.30
2019-05-29T16:25:44.593Z,13.40
2019-05-29T16:28:13.317Z,13.30
2019-05-29T16:30:42.127Z,13.30
2019-05-29T16:33:10.960Z,13.20
2019-05-29T16:35:39.692Z,13.20
2019-05-29T16:38:08.447Z,13.10
2019-05-29T16:40:37.238Z,13.10
2019-05-29T16:43:06.084Z,13.00
2019-05-29T16:45:34.839Z,13.00
2019-05-29T16:48:03.652Z,12.90
2019-05-29T16:50:32.425Z,12.80
2019-05-29T16:53:01.341Z,12.80
2019-05-29T16:55:30.295Z,12.80
2019-05-29T16:57:59.066Z,12.70
2019-05-29T17:00:27.956Z,12.70
2019-05-29T17:02:56.733Z,12.80
2019-05-29T17:05:28.275Z,12.70
2019-05-29T17:07:57.226Z,12.70
2019-05-29T17:10:36.757Z,12.60
2019-05-29T17:13:07.192Z,12.60
2019-05-29T17:15:36.082Z,12.60
2019-05-29T17:18:05.323Z,12.60
2019-05-29T17:20:42.358Z,12.60
2019-05-29T17:23:11.580Z,12.50
2019-05-29T17:25:40.602Z,12.50
2019-05-29T17:28:09.671Z,12.40
2019-05-29T17:30:38.382Z,12.30
2019-05-29T17:33:07.860Z,12.20
2019-05-29T17:35:36.909Z,12.20
2019-05-29T17:38:05.947Z,12.20
2019-05-29T17:40:34.689Z,12.10
2019-05-29T17:43:03.448Z,12.20
2019-05-29T17:45:32.909Z,12.10
2019-05-29T17:48:17.539Z,12.00
2019-05-29T17:50:46.415Z,11.90
2019-05-29T17:53:17.798Z,11.90
2019-05-29T17:55:58.790Z,12.00
2019-05-29T17:58:30.357Z,11.90
2019-05-29T18:00:59.110Z,11.90
2019-05-29T18:03:27.860Z,11.90
2019-05-29T18:05:56.594Z,11.90
2019-05-29T18:08:25.474Z,11.70
2019-05-29T18:10:54.147Z,11.70
2019-05-29T18:13:23.328Z,11.70
2019-05-29T18:15:52.123Z,11.70
2019-05-29T18:18:21.595Z,11.70
2019-05-29T18:20:50.480Z,11.80
2019-05-29T18:23:19.966Z,11.80
2019-05-29T18:25:48.920Z,11.70
2019-05-29T18:28:17.741Z,11.60
2019-05-29T18:30:46.488Z,11.60
2019-05-29T18:45:29.355Z,11.40
2019-05-29T18:47:58.450Z,11.40
2019-05-29T18:50:30.087Z,11.30
2019-05-29T18:52:58.589Z,11.30
2019-05-29T18:55:27.478Z,11.20
2019-05-29T18:57:56.223Z,11.20
2019-05-29T19:00:25.370Z,11.20
2019-05-29T19:02:55.408Z,11.20
2019-05-29T19:05:25.590Z,11.10
2019-05-29T19:07:54.513Z,11.20
2019-05-29T19:10:25.595Z,11.10
2019-05-29T19:12:54.538Z,11.10
2019-05-29T19:15:23.880Z,11.00
2019-05-29T19:17:52.786Z,11.00
2019-05-29T19:20:24.256Z,11.00
2019-05-29T19:22:53.166Z,10.80
2019-05-29T19:25:22.679Z,10.90
2019-05-29T19:27:52.234Z,10.80
2019-05-29T19:30:21.077Z,10.80
2019-05-29T19:32:49.794Z,10.70
2019-05-29T19:35:18.654Z,10.80
2019-05-29T19:37:47.378Z,10.80
2019-05-29T19:40:16.750Z,10.80
2019-05-29T19:42:45.489Z,10.70
2019-05-29T19:45:14.808Z,10.70
2019-05-29T19:47:43.533Z,10.70
2019-05-29T19:50:12.571Z,10.60
2019-05-29T19:52:41.479Z,10.60
2019-05-29T19:55:10.504Z,10.60
2019-05-29T19:57:54.931Z,10.60
2019-05-29T20:00:11.050Z,10.60
2019-05-29T20:02:40.299Z,10.60
2019-05-29T20:05:09.228Z,10.60
2019-05-29T20:07:37.983Z,10.60
2019-05-29T20:10:09.044Z,10.60
2019-05-29T20:12:38.202Z,10.60
2019-05-29T20:15:07.924Z,10.50
2019-05-29T20:17:36.721Z,10.50
2019-05-29T20:20:07.122Z,10.40
2019-05-29T20:22:36.887Z,10.40
2019-05-29T20:25:07.518Z,10.40
2019-05-29T20:27:36.459Z,10.30
2019-05-29T20:30:06.788Z,10.30
2019-05-29T20:32:39.174Z,10.20
2019-05-29T20:35:08.204Z,10.20
2019-05-29T20:37:38.219Z,10.20
2019-05-29T20:40:07.431Z,10.20
2019-05-29T20:42:36.370Z,10.20
2019-05-29T20:45:08.778Z,10.20
2019-05-29T20:47:37.970Z,10.10
2019-05-29T20:50:08.539Z,10.10
2019-05-29T20:52:37.484Z,10.10
2019-05-29T20:55:25.680Z,10.00
2019-05-29T20:57:54.424Z,10.00
2019-05-29T21:00:24.009Z,10.00
2019-05-29T21:02:52.945Z,9.90
2019-05-29T21:05:21.683Z,10.00
2019-05-29T21:07:50.403Z,9.90
2019-05-29T21:10:19.450Z,9.90
2019-05-29T21:12:48.194Z,9.80
2019-05-29T21:15:17.556Z,9.70
2019-05-29T21:17:46.278Z,9.70
2019-05-29T21:20:15.180Z,9.60
2019-05-29T21:22:44.944Z,9.60
2019-05-29T21:25:18.604Z,9.60
2019-05-29T21:27:48.751Z,9.60
2019-05-29T21:30:15.424Z,9.70
2019-05-29T21:32:44.225Z,9.70
2019-05-29T21:35:13.163Z,9.70
2019-05-29T21:37:42.505Z,9.70
2019-05-29T21:40:11.499Z,9.70
2019-05-29T21:42:40.579Z,9.70
2019-05-29T21:45:09.472Z,9.70
2019-05-29T21:47:38.991Z,9.60
2019-05-29T21:50:09.567Z,9.60
2019-05-29T21:52:39.411Z,9.60
2019-05-29T21:55:08.673Z,9.60
2019-05-29T21:57:37.850Z,9.50
2019-05-29T22:00:11.874Z,9.50
2019-05-29T22:02:40.667Z,9.40
2019-05-29T22:05:10.251Z,9.50
2019-05-29T22:07:39.035Z,9.40
2019-05-29T22:10:08.069Z,9.30
2019-05-29T22:12:36.798Z,9.20
2019-05-29T22:15:07.101Z,9.10
2019-05-29T22:17:35.902Z,9.10
2019-05-29T22:20:07.761Z,9.10
2019-05-29T22:22:36.477Z,9.10
2019-05-29T22:25:08.388Z,9.10
2019-05-29T22:27:37.690Z,9.10
2019-05-29T22:30:06.917Z,9.00
2019-05-29T22:32:35.726Z,9.10
2019-05-29T22:37:47.882Z,9.00
2019-05-29T22:40:16.701Z,9.00
2019-05-29T22:42:45.427Z,9.10
2019-05-29T22:45:14.234Z,9.00
2019-05-29T22:47:42.954Z,9.00
2019-05-29T22:50:12.041Z,9.00
2019-05-29T22:52:40.771Z,9.00
2019-05-29T22:55:09.485Z,8.90
2019-05-29T22:57:38.239Z,8.90
2019-05-29T23:00:08.827Z,8.90
2019-05-29T23:02:37.547Z,8.80
2019-05-29T23:05:09.377Z,8.80
2019-05-29T23:07:38.086Z,8.80
2019-05-29T23:10:08.300Z,8.80
2019-05-29T23:12:36.994Z,8.80
2019-05-29T23:15:08.843Z,8.70
2019-05-29T23:17:37.556Z,8.80
2019-05-29T23:20:09.898Z,8.70
2019-05-29T23:22:38.661Z,8.70
2019-05-29T23:25:08.735Z,8.70
2019-05-29T23:27:37.679Z,8.70
2019-05-29T23:30:07.859Z,8.70
2019-05-29T23:32:36.586Z,8.60
2019-05-29T23:35:08.646Z,8.60
2019-05-29T23:37:37.377Z,8.60
2019-05-29T23:40:07.755Z,8.50
2019-05-29T23:42:36.492Z,8.40
2019-05-29T23:45:08.739Z,8.40
2019-05-29T23:47:37.452Z,8.40
2019-05-29T23:50:06.931Z,8.40
2019-05-29T23:52:35.664Z,8.40
2019-05-29T23:55:05.782Z,8.40
2019-05-29T23:57:34.513Z,8.30
